Time;durP1;ratioP1;P1;durP2;ratioP2;P2;SDS_P1;SDS_P2;PMS_P1;PMS_P2;Temp;Humidity;BMP_temperature;BMP_pressure;BME280_temperature;BME280_humidity;BME280_pressure;Samples;Min_cycle;Max_cycle;Signal;HPM_P1;HPM_P2
2023/05/25 00:02:05;;;;;;;15.75;5.78;;;;;;;;;;5033797;28;20120;-73
2023/05/25 00:04:33;;;;;;;14.90;5.72;;;;;;;;;;5034305;28;20446;-73
2023/05/25 00:07:02;;;;;;;16.50;5.95;;;;;;;;;;5016508;28;20124;-73
2023/05/25 00:09:28;;;;;;;12.30;6.13;;;;;;;;;;5016232;28;20072;-73
2023/05/25 00:11:54;;;;;;;13.77;5.38;;;;;;;;;;5033940;28;20056;-73
2023/05/25 00:14:21;;;;;;;16.42;6.03;;;;;;;;;;5033263;28;20107;-73
2023/05/25 00:16:47;;;;;;;13.43;5.72;;;;;;;;;;5033418;28;20077;-73
2023/05/25 00:19:14;;;;;;;14.80;5.47;;;;;;;;;;5034029;28;20041;-73
2023/05/25 00:21:41;;;;;;;14.65;5.53;;;;;;;;;;5032940;28;20042;-73
2023/05/25 00:24:07;;;;;;;15.35;5.70;;;;;;;;;;5031881;28;20427;-73
2023/05/25 00:26:34;;;;;;;14.15;5.90;;;;;;;;;;5033566;28;20554;-73
2023/05/25 00:29:00;;;;;;;16.77;6.20;;;;;;;;;;5032498;28;20042;-73
2023/05/25 00:31:27;;;;;;;18.38;6.40;;;;;;;;;;5032622;28;20180;-73
2023/05/25 00:33:53;;;;;;;16.13;6.57;;;;;;;;;;5032752;28;20461;-73
2023/05/25 00:36:19;;;;;;;18.48;6.38;;;;;;;;;;5034658;28;20049;-73
2023/05/25 00:38:45;;;;;;;14.00;6.45;;;;;;;;;;5031730;28;20041;-73
2023/05/25 00:41:16;;;;;;;16.83;6.72;;;;;;;;;;5033948;28;20033;-73
2023/05/25 00:43:44;;;;;;;14.20;6.32;;;;;;;;;;5032773;28;20041;-73
2023/05/25 00:46:10;;;;;;;16.45;6.13;;;;;;;;;;5032991;28;20054;-73
2023/05/25 00:48:38;;;;;;;17.70;7.32;;;;;;;;;;5031117;28;20175;-73
2023/05/25 00:51:05;;;;;;;13.40;6.15;;;;;;;;;;5033685;28;20103;-72
2023/05/25 00:53:32;;;;;;;18.33;7.70;;;;;;;;;;5033015;28;20468;-73
2023/05/25 00:56:02;;;;;;;17.73;7.20;;;;;;;;;;5031419;28;20053;-73
2023/05/25 00:58:30;;;;;;;18.63;6.88;;;;;;;;;;5043735;28;20041;-72
2023/05/25 01:00:58;;;;;;;20.75;7.07;;;;;;;;;;5018773;28;20129;-73
2023/05/25 01:03:27;;;;;;;15.85;6.93;;;;;;;;;;5034092;28;20045;-73
2023/05/25 01:05:54;;;;;;;16.17;6.82;;;;;;;;;;5049120;28;20056;-73
2023/05/25 01:08:22;;;;;;;18.35;7.32;;;;;;;;;;5054280;28;20049;-73
2023/05/25 01:10:56;;;;;;;13.82;6.78;;;;;;;;;;5044260;28;20418;-73
2023/05/25 01:13:22;;;;;;;19.38;7.20;;;;;;;;;;5033927;28;20048;-73
2023/05/25 01:15:49;;;;;;;16.50;7.30;;;;;;;;;;5032397;28;20046;-73
2023/05/25 01:18:16;;;;;;;14.77;6.93;;;;;;;;;;5033070;28;20107;-73
2023/05/25 01:21:01;;;;;;;16.60;7.03;;;;;;;;;;5032349;28;20049;-72
2023/05/25 01:23:32;;;;;;;20.17;7.70;;;;;;;;;;5031396;28;20081;-73
2023/05/25 01:26:01;;;;;;;16.50;7.32;;;;;;;;;;5031961;28;20042;-73
2023/05/25 01:28:32;;;;;;;17.45;6.85;;;;;;;;;;5032693;28;20053;-73
2023/05/25 01:30:58;;;;;;;14.13;6.50;;;;;;;;;;5031736;28;20069;-73
2023/05/25 01:33:25;;;;;;;20.50;6.88;;;;;;;;;;5031885;28;20034;-73
2023/05/25 01:35:51;;;;;;;18.88;6.95;;;;;;;;;;5031294;28;20098;-72
2023/05/25 01:38:18;;;;;;;16.88;6.20;;;;;;;;;;5032731;28;20091;-73
2023/05/25 01:40:44;;;;;;;14.07;5.50;;;;;;;;;;5032450;28;20465;-73
2023/05/25 01:43:10;;;;;;;13.02;5.30;;;;;;;;;;5029230;28;20151;-73
2023/05/25 01:45:37;;;;;;;10.93;4.65;;;;;;;;;;5032302;28;20061;-73
2023/05/25 01:48:12;;;;;;;12.40;4.28;;;;;;;;;;5036087;28;20046;-73
2023/05/25 01:50:57;;;;;;;11.60;4.28;;;;;;;;;;5029863;28;20119;-73
2023/05/25 01:53:26;;;;;;;11.48;4.35;;;;;;;;;;5020180;28;20041;-73
2023/05/25 01:55:58;;;;;;;10.63;4.53;;;;;;;;;;5029906;28;20049;-73
2023/05/25 01:58:25;;;;;;;10.80;4.68;;;;;;;;;;5029603;28;20399;-73
2023/05/25 02:00:52;;;;;;;13.93;4.85;;;;;;;;;;5030693;28;20553;-73
2023/05/25 02:03:18;;;;;;;11.52;4.93;;;;;;;;;;5034694;28;20538;-73
2023/05/25 02:05:45;;;;;;;13.50;5.07;;;;;;;;;;5030467;28;20045;-73
2023/05/25 02:08:11;;;;;;;11.40;5.05;;;;;;;;;;5014709;28;20041;-73
2023/05/25 02:10:37;;;;;;;12.15;5.82;;;;;;;;;;5030394;28;20046;-73
2023/05/25 02:13:03;;;;;;;14.63;5.90;;;;;;;;;;5032048;28;20391;-73
2023/05/25 02:15:31;;;;;;;15.43;6.82;;;;;;;;;;5031816;28;20124;-72
2023/05/25 02:17:58;;;;;;;12.25;5.82;;;;;;;;;;5021634;28;20061;-73
2023/05/25 02:20:25;;;;;;;17.70;5.70;;;;;;;;;;5030767;28;20131;-73
2023/05/25 02:22:51;;;;;;;14.25;5.82;;;;;;;;;;5032889;28;20045;-73
2023/05/25 02:25:17;;;;;;;13.43;6.80;;;;;;;;;;5030479;28;20087;-73
2023/05/25 02:27:43;;;;;;;13.70;6.05;;;;;;;;;;5031016;28;20052;-72
2023/05/25 02:30:09;;;;;;;16.40;5.63;;;;;;;;;;5030273;28;20045;-73
2023/05/25 02:32:36;;;;;;;10.55;5.47;;;;;;;;;;5032002;28;20088;-73
2023/05/25 02:35:02;;;;;;;12.43;5.20;;;;;;;;;;5013167;28;20046;-72
2023/05/25 02:37:28;;;;;;;12.65;5.68;;;;;;;;;;5032846;28;20037;-73
2023/05/25 02:39:54;;;;;;;12.30;5.57;;;;;;;;;;5032008;28;20059;-73
2023/05/25 02:42:20;;;;;;;13.70;6.10;;;;;;;;;;5031507;28;20051;-73
2023/05/25 02:44:47;;;;;;;13.63;5.85;;;;;;;;;;5028461;28;20415;-73
2023/05/25 02:47:14;;;;;;;11.60;5.18;;;;;;;;;;5034534;28;20589;-73
2023/05/25 02:49:40;;;;;;;15.55;6.50;;;;;;;;;;5029876;28;20491;-73
2023/05/25 02:52:06;;;;;;;9.75;5.78;;;;;;;;;;5030857;28;20041;-72
2023/05/25 02:54:32;;;;;;;13.52;6.18;;;;;;;;;;5045840;28;20050;-73
2023/05/25 02:56:58;;;;;;;14.18;6.30;;;;;;;;;;5026351;28;20045;-73
2023/05/25 02:59:24;;;;;;;16.52;6.50;;;;;;;;;;5032398;28;20555;-73
2023/05/25 03:01:50;;;;;;;12.73;6.22;;;;;;;;;;5030163;28;20137;-72
2023/05/25 03:04:17;;;;;;;16.25;7.13;;;;;;;;;;5015677;28;20430;-73
2023/05/25 03:06:44;;;;;;;16.85;7.20;;;;;;;;;;5031805;28;20081;-73
2023/05/25 03:09:10;;;;;;;15.27;7.35;;;;;;;;;;5032567;28;20045;-73
2023/05/25 03:11:36;;;;;;;13.52;7.25;;;;;;;;;;5029230;28;20136;-73
2023/05/25 03:14:02;;;;;;;15.10;7.13;;;;;;;;;;5031462;28;20037;-72
2023/05/25 03:16:28;;;;;;;15.13;7.43;;;;;;;;;;5035178;28;20042;-73
2023/05/25 03:18:54;;;;;;;14.30;6.72;;;;;;;;;;5034185;28;20392;-73
2023/05/25 03:21:23;;;;;;;16.48;7.90;;;;;;;;;;5031971;28;20446;-73
2023/05/25 03:23:49;;;;;;;14.23;7.68;;;;;;;;;;5033711;28;20116;-73
2023/05/25 03:26:16;;;;;;;14.15;7.22;;;;;;;;;;5033173;28;20041;-73
2023/05/25 03:28:42;;;;;;;18.23;7.40;;;;;;;;;;5033829;28;20046;-73
2023/05/25 03:31:09;;;;;;;16.70;8.65;;;;;;;;;;5034226;28;20056;-73
2023/05/25 03:33:35;;;;;;;15.55;7.72;;;;;;;;;;5016185;28;20049;-73
2023/05/25 03:36:06;;;;;;;17.90;7.97;;;;;;;;;;5033676;28;20514;-73
2023/05/25 03:38:32;;;;;;;15.43;7.22;;;;;;;;;;5030137;28;20127;-73
2023/05/25 03:40:58;;;;;;;14.75;7.25;;;;;;;;;;5032482;28;20045;-73
2023/05/25 03:43:24;;;;;;;14.40;7.30;;;;;;;;;;5033388;28;20057;-73
2023/05/25 03:45:50;;;;;;;15.57;7.38;;;;;;;;;;5034482;28;20069;-73
2023/05/25 03:48:16;;;;;;;13.77;6.90;;;;;;;;;;5035343;28;20049;-73
2023/05/25 03:50:43;;;;;;;15.02;7.07;;;;;;;;;;5032087;28;20148;-73
2023/05/25 03:53:09;;;;;;;13.55;7.30;;;;;;;;;;5034083;28;20056;-73
2023/05/25 03:55:35;;;;;;;18.10;7.55;;;;;;;;;;5032815;28;20045;-73
2023/05/25 03:58:01;;;;;;;14.98;7.40;;;;;;;;;;5028823;28;20056;-73
2023/05/25 04:00:27;;;;;;;18.92;8.00;;;;;;;;;;5032705;28;20045;-72
2023/05/25 04:02:53;;;;;;;14.15;7.05;;;;;;;;;;5037534;28;21148;-73
2023/05/25 04:05:19;;;;;;;17.85;7.25;;;;;;;;;;5032896;28;20570;-73
2023/05/25 04:07:45;;;;;;;15.25;7.13;;;;;;;;;;5031990;28;20045;-73
2023/05/25 04:10:11;;;;;;;14.38;7.55;;;;;;;;;;5033378;28;20034;-73
2023/05/25 04:12:38;;;;;;;15.35;7.00;;;;;;;;;;5033103;28;20072;-73
2023/05/25 04:15:07;;;;;;;15.52;7.45;;;;;;;;;;5033818;28;20056;-73
2023/05/25 04:17:34;;;;;;;17.77;8.43;;;;;;;;;;5032621;28;20058;-72
2023/05/25 04:20:00;;;;;;;18.40;7.70;;;;;;;;;;5033277;28;20088;-73
2023/05/25 04:22:26;;;;;;;19.55;8.55;;;;;;;;;;5033386;28;20410;-73
2023/05/25 04:24:53;;;;;;;16.45;8.48;;;;;;;;;;5032746;28;20504;-73
2023/05/25 04:27:19;;;;;;;17.20;8.82;;;;;;;;;;5032238;28;20054;-73
2023/05/25 04:29:45;;;;;;;18.13;8.60;;;;;;;;;;5033018;28;20119;-73
2023/05/25 04:32:16;;;;;;;19.45;7.88;;;;;;;;;;5013842;28;20120;-72
2023/05/25 04:34:43;;;;;;;17.75;8.07;;;;;;;;;;5032382;28;20049;-73
2023/05/25 04:37:09;;;;;;;15.82;8.55;;;;;;;;;;5032766;28;20041;-73
2023/05/25 04:39:35;;;;;;;17.58;8.63;;;;;;;;;;5032373;28;20042;-72
2023/05/25 04:42:03;;;;;;;19.23;8.45;;;;;;;;;;5032166;28;20048;-73
2023/05/25 04:44:30;;;;;;;17.02;8.50;;;;;;;;;;5032804;28;20050;-73
2023/05/25 04:46:56;;;;;;;15.18;8.00;;;;;;;;;;5031930;28;20148;-73
2023/05/25 04:49:22;;;;;;;19.70;9.15;;;;;;;;;;5033486;28;20042;-73
2023/05/25 04:51:48;;;;;;;18.17;9.23;;;;;;;;;;5029330;28;20064;-73
2023/05/25 04:54:14;;;;;;;19.13;10.45;;;;;;;;;;5031505;28;20055;-73
2023/05/25 04:56:40;;;;;;;21.00;10.30;;;;;;;;;;5035623;28;20052;-73
2023/05/25 04:59:06;;;;;;;21.92;10.80;;;;;;;;;;5014951;28;20056;-73
2023/05/25 05:01:33;;;;;;;19.35;9.90;;;;;;;;;;5021587;28;20053;-73
2023/05/25 05:03:59;;;;;;;19.45;10.25;;;;;;;;;;5032145;28;20060;-73
2023/05/25 05:06:25;;;;;;;24.30;10.60;;;;;;;;;;5031852;28;20053;-73
2023/05/25 05:08:51;;;;;;;19.75;10.15;;;;;;;;;;5032255;28;20045;-73
2023/05/25 05:11:17;;;;;;;22.95;10.15;;;;;;;;;;5031428;28;20046;-73
2023/05/25 05:13:43;;;;;;;24.58;10.63;;;;;;;;;;5032610;28;20096;-73
2023/05/25 05:16:09;;;;;;;21.17;10.07;;;;;;;;;;5015200;28;20086;-73
2023/05/25 05:18:35;;;;;;;20.80;10.38;;;;;;;;;;5032298;28;20049;-73
2023/05/25 05:21:01;;;;;;;21.75;9.93;;;;;;;;;;5026383;28;20108;-73
2023/05/25 05:23:27;;;;;;;20.10;9.90;;;;;;;;;;5021948;28;20411;-73
2023/05/25 05:25:53;;;;;;;20.45;10.65;;;;;;;;;;5032668;28;20046;-73
2023/05/25 05:28:20;;;;;;;20.45;10.10;;;;;;;;;;5031933;28;20060;-73
2023/05/25 05:30:46;;;;;;;22.77;9.52;;;;;;;;;;5021773;28;20053;-72
2023/05/25 05:33:13;;;;;;;21.02;9.35;;;;;;;;;;5032013;28;20052;-73
2023/05/25 05:35:39;;;;;;;19.30;10.15;;;;;;;;;;5026624;28;20594;-73
2023/05/25 05:38:06;;;;;;;20.80;8.60;;;;;;;;;;5036974;28;20096;-72
2023/05/25 05:40:32;;;;;;;19.13;7.93;;;;;;;;;;5030839;28;20525;-73
2023/05/25 05:42:58;;;;;;;19.25;7.93;;;;;;;;;;5031772;28;20049;-73
2023/05/25 05:45:24;;;;;;;19.60;7.47;;;;;;;;;;5037702;28;20401;-73
2023/05/25 05:47:50;;;;;;;16.58;7.35;;;;;;;;;;5025582;28;20108;-73
2023/05/25 05:50:16;;;;;;;15.68;6.93;;;;;;;;;;5027217;28;20064;-73
2023/05/25 05:52:42;;;;;;;17.83;7.35;;;;;;;;;;5032130;28;20053;-73
2023/05/25 05:55:08;;;;;;;18.15;6.85;;;;;;;;;;5031418;28;20045;-73
2023/05/25 05:57:35;;;;;;;14.75;6.10;;;;;;;;;;5028253;28;20037;-73
2023/05/25 06:00:02;;;;;;;15.68;6.28;;;;;;;;;;5025630;28;20049;-73
2023/05/25 06:02:28;;;;;;;16.40;5.57;;;;;;;;;;5011596;28;20049;-73
2023/05/25 06:04:54;;;;;;;15.90;6.20;;;;;;;;;;5031113;28;20042;-73
2023/05/25 06:07:21;;;;;;;13.05;5.45;;;;;;;;;;5028835;28;20040;-73
2023/05/25 06:09:47;;;;;;;16.52;5.93;;;;;;;;;;5031749;28;20121;-73
2023/05/25 06:12:13;;;;;;;16.02;5.85;;;;;;;;;;5030391;28;20077;-75
2023/05/25 06:14:39;;;;;;;13.25;5.43;;;;;;;;;;5029253;28;20100;-74
2023/05/25 06:17:05;;;;;;;14.43;5.70;;;;;;;;;;5028229;28;20093;-75
2023/05/25 06:19:31;;;;;;;16.05;5.63;;;;;;;;;;5014239;28;20051;-74
2023/05/25 06:21:57;;;;;;;14.10;5.22;;;;;;;;;;5030819;28;20056;-75
2023/05/25 06:24:23;;;;;;;16.98;5.65;;;;;;;;;;5030679;28;20100;-75
2023/05/25 06:26:49;;;;;;;17.25;5.20;;;;;;;;;;5030945;28;20460;-75
2023/05/25 06:29:15;;;;;;;14.25;5.25;;;;;;;;;;5030517;28;20060;-75
2023/05/25 06:31:41;;;;;;;13.40;4.85;;;;;;;;;;5032004;28;20100;-75
2023/05/25 06:34:07;;;;;;;13.43;5.60;;;;;;;;;;5012712;28;20480;-75
2023/05/25 06:36:33;;;;;;;17.02;6.03;;;;;;;;;;5030475;28;20045;-75
2023/05/25 06:39:00;;;;;;;14.02;4.80;;;;;;;;;;5006064;28;20083;-75
2023/05/25 06:41:26;;;;;;;15.52;4.80;;;;;;;;;;5031645;28;20049;-75
2023/05/25 06:43:52;;;;;;;16.83;5.38;;;;;;;;;;5009323;28;20499;-74
2023/05/25 06:46:18;;;;;;;15.52;5.18;;;;;;;;;;5030553;28;20049;-74
2023/05/25 06:48:45;;;;;;;15.02;4.53;;;;;;;;;;5033636;28;20353;-75
2023/05/25 06:51:11;;;;;;;17.55;4.35;;;;;;;;;;5016728;28;20042;-75
2023/05/25 06:53:38;;;;;;;14.57;4.32;;;;;;;;;;5025131;28;20159;-74
2023/05/25 06:56:04;;;;;;;17.88;4.55;;;;;;;;;;5035043;28;20483;-75
2023/05/25 06:58:31;;;;;;;13.70;4.32;;;;;;;;;;5035429;28;20049;-75
2023/05/25 07:00:59;;;;;;;12.73;3.38;;;;;;;;;;5034590;28;20171;-75
2023/05/25 07:03:25;;;;;;;15.73;4.25;;;;;;;;;;5035317;28;20061;-75
2023/05/25 07:05:51;;;;;;;14.23;4.00;;;;;;;;;;5034930;28;20046;-75
2023/05/25 07:08:17;;;;;;;17.13;3.53;;;;;;;;;;5035344;28;20099;-75
2023/05/25 07:10:43;;;;;;;14.77;4.25;;;;;;;;;;5033819;28;20042;-75
2023/05/25 07:13:10;;;;;;;16.50;3.83;;;;;;;;;;5035294;28;20038;-75
2023/05/25 07:15:36;;;;;;;16.00;3.75;;;;;;;;;;5034500;28;20148;-74
2023/05/25 07:18:02;;;;;;;18.63;3.80;;;;;;;;;;5034647;28;20072;-75
2023/05/25 07:20:28;;;;;;;15.68;3.78;;;;;;;;;;5033782;28;20444;-75
2023/05/25 07:22:55;;;;;;;14.82;3.25;;;;;;;;;;5034362;28;20049;-75
2023/05/25 07:25:21;;;;;;;13.13;3.30;;;;;;;;;;5034032;28;20488;-75
2023/05/25 07:27:47;;;;;;;17.10;4.22;;;;;;;;;;5033667;28;20046;-75
2023/05/25 07:30:13;;;;;;;16.30;4.35;;;;;;;;;;5032733;28;20045;-75
2023/05/25 07:32:40;;;;;;;15.38;3.88;;;;;;;;;;5030756;28;20045;-74
2023/05/25 07:35:06;;;;;;;16.00;3.90;;;;;;;;;;4996876;28;20071;-75
2023/05/25 07:37:32;;;;;;;15.18;3.63;;;;;;;;;;5014815;28;20053;-74
2023/05/25 07:39:58;;;;;;;17.17;3.63;;;;;;;;;;5014351;28;20106;-75
2023/05/25 07:42:24;;;;;;;13.55;4.25;;;;;;;;;;5034014;28;20407;-75
2023/05/25 07:44:50;;;;;;;16.98;4.00;;;;;;;;;;5032260;28;20045;-75
2023/05/25 07:47:16;;;;;;;17.33;3.63;;;;;;;;;;5033718;28;20049;-75
2023/05/25 07:49:42;;;;;;;21.80;4.68;;;;;;;;;;5051719;28;20487;-75
2023/05/25 07:52:09;;;;;;;21.08;4.43;;;;;;;;;;5034155;28;20464;-75
2023/05/25 07:54:38;;;;;;;22.83;4.53;;;;;;;;;;5033972;28;20041;-75
2023/05/25 07:57:05;;;;;;;15.57;3.75;;;;;;;;;;5033714;28;20048;-75
2023/05/25 07:59:31;;;;;;;17.02;4.30;;;;;;;;;;5031447;28;20072;-74
2023/05/25 08:01:57;;;;;;;21.08;4.88;;;;;;;;;;5033551;28;20378;-75
2023/05/25 08:04:23;;;;;;;17.92;4.45;;;;;;;;;;5031013;28;20105;-74
2023/05/25 08:06:49;;;;;;;19.20;4.93;;;;;;;;;;5028806;28;20045;-75
2023/05/25 08:09:15;;;;;;;17.88;4.30;;;;;;;;;;5027474;28;20072;-74
2023/05/25 08:11:43;;;;;;;19.58;4.22;;;;;;;;;;5030790;28;20091;-74
2023/05/25 08:14:10;;;;;;;21.70;4.57;;;;;;;;;;5030266;28;20050;-74
2023/05/25 08:16:36;;;;;;;17.90;4.25;;;;;;;;;;5025945;28;20045;-75
2023/05/25 08:19:02;;;;;;;18.30;3.92;;;;;;;;;;5031412;28;20049;-74
2023/05/25 08:21:28;;;;;;;21.40;4.30;;;;;;;;;;5030758;28;20060;-74
2023/05/25 08:23:55;;;;;;;19.90;4.20;;;;;;;;;;5031344;28;20371;-75
2023/05/25 08:26:21;;;;;;;18.40;4.50;;;;;;;;;;5030114;28;20037;-75
2023/05/25 08:28:48;;;;;;;16.73;4.07;;;;;;;;;;5029382;28;20056;-75
2023/05/25 08:31:14;;;;;;;19.42;4.40;;;;;;;;;;5029799;28;20509;-75
2023/05/25 08:33:40;;;;;;;19.17;4.40;;;;;;;;;;5033264;28;20038;-75
2023/05/25 08:36:08;;;;;;;16.88;4.53;;;;;;;;;;5033240;28;20066;-74
2023/05/25 08:38:34;;;;;;;22.58;5.03;;;;;;;;;;5032647;28;20041;-75
2023/05/25 08:41:03;;;;;;;19.38;5.03;;;;;;;;;;5033430;28;20088;-75
2023/05/25 08:43:29;;;;;;;21.08;5.10;;;;;;;;;;5030929;28;20118;-75
2023/05/25 08:46:00;;;;;;;21.45;4.80;;;;;;;;;;5013804;28;20111;-75
2023/05/25 08:48:27;;;;;;;21.60;5.18;;;;;;;;;;5015812;28;20120;-75
2023/05/25 08:50:54;;;;;;;21.02;5.20;;;;;;;;;;5032996;28;20045;-75
2023/05/25 08:53:20;;;;;;;22.08;5.25;;;;;;;;;;5031885;28;20515;-75
2023/05/25 08:55:47;;;;;;;21.17;4.85;;;;;;;;;;5030203;28;20095;-75
2023/05/25 08:58:19;;;;;;;23.17;5.00;;;;;;;;;;5032904;28;20050;-74
2023/05/25 09:00:50;;;;;;;20.75;5.30;;;;;;;;;;5028799;28;20052;-75
2023/05/25 09:03:19;;;;;;;;;;;;;;;;;;5005837;28;20037;-75
2023/05/25 09:05:45;;;;;;;20.15;4.78;;;;;;;;;;5033508;28;19921;-74
2023/05/25 09:08:12;;;;;;;22.77;4.97;;;;;;;;;;5027933;28;20127;-73
2023/05/25 09:10:38;;;;;;;23.75;4.85;;;;;;;;;;5038245;28;20041;-74
2023/05/25 09:13:04;;;;;;;27.27;5.53;;;;;;;;;;5027219;28;20132;-73
2023/05/25 09:15:31;;;;;;;22.67;5.00;;;;;;;;;;5032549;28;20045;-73
2023/05/25 09:17:57;;;;;;;21.30;4.80;;;;;;;;;;5030971;28;20528;-73
2023/05/25 09:20:23;;;;;;;24.48;5.53;;;;;;;;;;5030860;28;20073;-73
2023/05/25 09:22:49;;;;;;;25.15;5.18;;;;;;;;;;5016656;28;20053;-74
2023/05/25 09:25:19;;;;;;;19.23;4.57;;;;;;;;;;5030535;28;20184;-73
2023/05/25 09:27:45;;;;;;;29.23;5.55;;;;;;;;;;5012700;28;20046;-74
2023/05/25 09:30:11;;;;;;;22.00;5.22;;;;;;;;;;5032685;28;20447;-74
2023/05/25 09:32:38;;;;;;;22.77;5.43;;;;;;;;;;5031394;28;20049;-73
2023/05/25 09:35:11;;;;;;;24.20;5.38;;;;;;;;;;5018545;28;20056;-73
2023/05/25 09:37:37;;;;;;;23.80;5.10;;;;;;;;;;5025688;28;20136;-73
2023/05/25 09:40:07;;;;;;;22.00;5.32;;;;;;;;;;5033605;28;20554;-73
2023/05/25 09:42:33;;;;;;;23.63;5.30;;;;;;;;;;5046659;28;20053;-73
2023/05/25 09:44:59;;;;;;;23.92;5.15;;;;;;;;;;5028735;28;20056;-73
2023/05/25 09:47:29;;;;;;;24.92;5.03;;;;;;;;;;5031929;28;20365;-73
2023/05/25 09:49:55;;;;;;;20.45;5.20;;;;;;;;;;5031358;28;20137;-74
2023/05/25 09:52:21;;;;;;;20.92;5.13;;;;;;;;;;5032599;28;20056;-74
2023/05/25 09:54:48;;;;;;;22.10;5.43;;;;;;;;;;5035042;28;20133;-74
2023/05/25 09:57:15;;;;;;;27.20;5.20;;;;;;;;;;5032370;28;20042;-73
2023/05/25 09:59:41;;;;;;;21.75;5.03;;;;;;;;;;5029786;28;20055;-73
2023/05/25 10:02:08;;;;;;;18.90;4.60;;;;;;;;;;5032492;28;20099;-74
2023/05/25 10:04:34;;;;;;;20.60;4.85;;;;;;;;;;5028748;28;20100;-73
2023/05/25 10:07:00;;;;;;;23.83;5.18;;;;;;;;;;5031008;28;20067;-73
2023/05/25 10:09:30;;;;;;;19.13;4.90;;;;;;;;;;5036136;28;20524;-73
2023/05/25 10:11:56;;;;;;;25.05;5.78;;;;;;;;;;5029934;28;20041;-73
2023/05/25 10:14:25;;;;;;;23.35;5.15;;;;;;;;;;5026352;28;20112;-73
2023/05/25 10:16:53;;;;;;;21.13;5.20;;;;;;;;;;5018444;28;20048;-73
2023/05/25 10:19:20;;;;;;;21.38;4.80;;;;;;;;;;5028095;28;20037;-73
2023/05/25 10:21:49;;;;;;;21.30;4.65;;;;;;;;;;5019758;28;20050;-73
2023/05/25 10:24:24;;;;;;;19.10;4.80;;;;;;;;;;5030479;28;20128;-73
2023/05/25 10:26:53;;;;;;;20.73;4.88;;;;;;;;;;5032015;28;20179;-73
2023/05/25 10:29:20;;;;;;;22.05;4.32;;;;;;;;;;5031864;28;20594;-73
2023/05/25 10:31:46;;;;;;;18.58;4.78;;;;;;;;;;5031969;28;20053;-73
2023/05/25 10:34:13;;;;;;;20.60;5.20;;;;;;;;;;5040505;28;20045;-73
2023/05/25 10:36:40;;;;;;;21.30;4.90;;;;;;;;;;5034039;28;20110;-73
2023/05/25 10:39:07;;;;;;;18.25;4.75;;;;;;;;;;5033930;28;20073;-73
2023/05/25 10:41:33;;;;;;;19.60;5.00;;;;;;;;;;5032077;28;20496;-73
2023/05/25 10:44:00;;;;;;;19.80;4.82;;;;;;;;;;5029923;28;20133;-73
2023/05/25 10:46:26;;;;;;;22.35;4.88;;;;;;;;;;5031726;28;20050;-73
2023/05/25 10:48:52;;;;;;;19.48;4.97;;;;;;;;;;5031258;28;20049;-73
2023/05/25 10:51:19;;;;;;;15.13;4.00;;;;;;;;;;5029371;28;20933;-73
2023/05/25 10:53:46;;;;;;;16.70;4.47;;;;;;;;;;5031760;28;20068;-73
2023/05/25 10:56:13;;;;;;;16.38;4.45;;;;;;;;;;5031753;28;20059;-73
2023/05/25 10:58:46;;;;;;;17.00;4.57;;;;;;;;;;5031657;28;20048;-73
2023/05/25 11:01:13;;;;;;;19.60;4.40;;;;;;;;;;5026782;28;20111;-73
2023/05/25 11:03:58;;;;;;;19.88;4.35;;;;;;;;;;5020296;28;20045;-73
2023/05/25 11:06:36;;;;;;;20.50;4.55;;;;;;;;;;5031027;28;20076;-73
2023/05/25 11:09:03;;;;;;;23.48;5.15;;;;;;;;;;5031340;28;20419;-73
2023/05/25 11:11:44;;;;;;;21.10;5.45;;;;;;;;;;5031093;28;20076;-73
2023/05/25 11:14:10;;;;;;;;;;;;;;;;;;5030271;28;20078;-73
2023/05/25 11:16:36;;;;;;;19.05;4.28;;;;;;;;;;5029941;28;19979;-73
2023/05/25 11:19:02;;;;;;;20.13;4.85;;;;;;;;;;5030037;28;20056;-73
2023/05/25 11:21:31;;;;;;;25.38;4.95;;;;;;;;;;5020078;28;20058;-73
2023/05/25 11:24:10;;;;;;;19.25;4.80;;;;;;;;;;5025399;28;20411;-73
2023/05/25 11:26:37;;;;;;;18.50;4.60;;;;;;;;;;5030212;28;20041;-73
2023/05/25 11:29:12;;;;;;;23.52;5.25;;;;;;;;;;5046552;28;20136;-73
2023/05/25 11:31:39;;;;;;;16.30;4.68;;;;;;;;;;5023466;28;20052;-73
2023/05/25 11:34:05;;;;;;;21.58;5.18;;;;;;;;;;5012370;28;20042;-73
2023/05/25 11:36:33;;;;;;;23.65;5.35;;;;;;;;;;5022997;28;20042;-73
2023/05/25 11:39:03;;;;;;;23.70;6.05;;;;;;;;;;5034127;28;20057;-73
2023/05/25 11:41:30;;;;;;;22.08;5.35;;;;;;;;;;4986130;28;20060;-73
2023/05/25 11:44:02;;;;;;;27.50;5.18;;;;;;;;;;5030663;28;20088;-73
2023/05/25 11:46:29;;;;;;;24.90;5.57;;;;;;;;;;5033968;28;20053;-73
2023/05/25 11:48:55;;;;;;;22.75;5.57;;;;;;;;;;5032498;28;20057;-73
2023/05/25 11:51:23;;;;;;;21.33;5.05;;;;;;;;;;5026699;28;20136;-73
2023/05/25 11:53:49;;;;;;;19.60;4.97;;;;;;;;;;5031755;28;20052;-73
2023/05/25 11:56:17;;;;;;;23.45;5.50;;;;;;;;;;5032853;28;20049;-73
2023/05/25 11:58:43;;;;;;;24.80;6.00;;;;;;;;;;5008403;28;20134;-73
2023/05/25 12:01:15;;;;;;;22.90;5.10;;;;;;;;;;5032440;28;20064;-72
2023/05/25 12:03:42;;;;;;;24.23;5.45;;;;;;;;;;5024688;28;20046;-73
2023/05/25 12:06:08;;;;;;;23.15;5.18;;;;;;;;;;5024519;28;20034;-73
2023/05/25 12:08:35;;;;;;;21.20;5.03;;;;;;;;;;5026725;28;20196;-73
2023/05/25 12:11:01;;;;;;;21.75;4.80;;;;;;;;;;5027304;28;20052;-74
2023/05/25 12:13:27;;;;;;;20.05;4.47;;;;;;;;;;5033505;28;20041;-75
2023/05/25 12:15:58;;;;;;;24.15;5.45;;;;;;;;;;5028944;28;20037;-75
2023/05/25 12:18:24;;;;;;;24.63;5.63;;;;;;;;;;5031249;28;20099;-75
2023/05/25 12:20:51;;;;;;;26.08;5.50;;;;;;;;;;5028300;28;20045;-74
2023/05/25 12:23:17;;;;;;;23.23;5.80;;;;;;;;;;5034705;28;20037;-74
2023/05/25 12:25:43;;;;;;;20.35;5.60;;;;;;;;;;5028056;28;20095;-74
2023/05/25 12:28:13;;;;;;;24.42;5.75;;;;;;;;;;5012791;28;20042;-74
2023/05/25 12:30:39;;;;;;;22.27;5.67;;;;;;;;;;5032267;28;20045;-74
2023/05/25 12:33:06;;;;;;;21.63;5.78;;;;;;;;;;5028396;28;20398;-75
2023/05/25 12:35:46;;;;;;;24.77;5.97;;;;;;;;;;5030657;28;20128;-75
2023/05/25 12:38:13;;;;;;;23.02;5.57;;;;;;;;;;5030538;28;20465;-75
2023/05/25 12:40:40;;;;;;;23.38;5.30;;;;;;;;;;5027062;28;20045;-75
2023/05/25 12:43:06;;;;;;;20.60;4.97;;;;;;;;;;5031939;28;20079;-75
2023/05/25 12:45:32;;;;;;;21.63;5.47;;;;;;;;;;5032472;28;20470;-75
2023/05/25 12:47:58;;;;;;;23.50;5.43;;;;;;;;;;5026000;28;20053;-75
2023/05/25 12:50:24;;;;;;;21.70;5.30;;;;;;;;;;5032812;28;20044;-74
2023/05/25 12:52:50;;;;;;;24.77;5.82;;;;;;;;;;5029496;28;20128;-75
2023/05/25 12:55:25;;;;;;;22.45;5.53;;;;;;;;;;5032636;28;20128;-75
2023/05/25 12:57:54;;;;;;;27.00;6.00;;;;;;;;;;5031649;28;20092;-75
2023/05/25 13:00:39;;;;;;;27.13;6.35;;;;;;;;;;5033225;28;20085;-75
2023/05/25 13:03:06;;;;;;;25.00;5.93;;;;;;;;;;5033014;28;20056;-75
2023/05/25 13:05:33;;;;;;;26.42;5.85;;;;;;;;;;5029892;28;20056;-75
2023/05/25 13:08:03;;;;;;;26.50;6.18;;;;;;;;;;5032522;28;20056;-75
2023/05/25 13:10:31;;;;;;;26.20;6.13;;;;;;;;;;5015586;28;20045;-75
2023/05/25 13:12:58;;;;;;;26.45;5.82;;;;;;;;;;5014132;28;20128;-75
2023/05/25 13:15:25;;;;;;;27.27;5.85;;;;;;;;;;5013244;28;20054;-75
2023/05/25 13:17:52;;;;;;;25.58;6.28;;;;;;;;;;5029152;28;20057;-75
2023/05/25 13:20:19;;;;;;;21.23;5.55;;;;;;;;;;5019899;28;20041;-75
2023/05/25 13:22:46;;;;;;;26.70;5.65;;;;;;;;;;5031159;28;20045;-73
2023/05/25 13:25:16;;;;;;;25.60;5.68;;;;;;;;;;5024209;28;20074;-73
2023/05/25 13:27:46;;;;;;;28.52;5.85;;;;;;;;;;5031229;28;20403;-74
2023/05/25 13:30:13;;;;;;;25.60;6.13;;;;;;;;;;5032721;28;20054;-73
2023/05/25 13:32:41;;;;;;;26.63;5.82;;;;;;;;;;5031525;28;20045;-73
2023/05/25 13:35:08;;;;;;;24.00;5.68;;;;;;;;;;5029757;28;20050;-74
2023/05/25 13:37:34;;;;;;;23.15;5.35;;;;;;;;;;5031954;28;20407;-73
2023/05/25 13:40:00;;;;;;;18.80;5.20;;;;;;;;;;5031004;28;20500;-74
2023/05/25 13:42:26;;;;;;;25.27;5.85;;;;;;;;;;5032754;28;20046;-74
2023/05/25 13:44:52;;;;;;;27.33;5.80;;;;;;;;;;5031176;28;20083;-74
2023/05/25 13:47:18;;;;;;;20.90;5.47;;;;;;;;;;4994085;28;20045;-73
2023/05/25 13:49:44;;;;;;;26.77;5.85;;;;;;;;;;5017401;28;20084;-73
2023/05/25 13:52:11;;;;;;;24.08;5.50;;;;;;;;;;5031147;28;20041;-73
2023/05/25 13:54:37;;;;;;;23.92;5.32;;;;;;;;;;5025839;28;20052;-73
2023/05/25 13:57:03;;;;;;;25.58;5.78;;;;;;;;;;5031295;28;20041;-73
2023/05/25 13:59:29;;;;;;;25.75;6.05;;;;;;;;;;5028637;28;20430;-73
2023/05/25 14:01:55;;;;;;;24.08;5.22;;;;;;;;;;5031947;28;20498;-73
2023/05/25 14:04:21;;;;;;;22.77;5.57;;;;;;;;;;5041242;28;20103;-73
2023/05/25 14:06:47;;;;;;;26.55;5.50;;;;;;;;;;5014444;28;20547;-73
2023/05/25 14:09:15;;;;;;;25.55;6.40;;;;;;;;;;5012762;28;20045;-73
2023/05/25 14:11:41;;;;;;;25.20;5.88;;;;;;;;;;5031225;28;20061;-73
2023/05/25 14:14:07;;;;;;;27.45;5.88;;;;;;;;;;5032181;28;20077;-73
2023/05/25 14:16:36;;;;;;;20.80;5.32;;;;;;;;;;5031157;28;20561;-73
2023/05/25 14:19:03;;;;;;;24.77;6.25;;;;;;;;;;5012921;28;20038;-73
2023/05/25 14:21:29;;;;;;;25.13;7.22;;;;;;;;;;5030576;28;20092;-73
2023/05/25 14:23:56;;;;;;;21.83;5.70;;;;;;;;;;5029998;28;20042;-73
2023/05/25 14:26:22;;;;;;;25.83;5.70;;;;;;;;;;5027444;28;20041;-73
2023/05/25 14:28:48;;;;;;;25.38;5.80;;;;;;;;;;5034635;28;20049;-73
2023/05/25 14:31:14;;;;;;;23.15;6.25;;;;;;;;;;5032416;28;20041;-72